createdAt,value
2023-02-11T00:01:36.947Z,100611.75
2023-02-11T00:04:05.591Z,100608.62
2023-02-11T00:06:34.279Z,100604.16
2023-02-11T00:09:02.487Z,100596.53
2023-02-11T00:11:30.679Z,100604.09
2023-02-11T00:13:59.905Z,100601.69
2023-02-11T00:16:28.210Z,100592.00
2023-02-11T00:18:55.730Z,100594.81
2023-02-11T00:21:24.988Z,100589.13
2023-02-11T00:23:53.105Z,100593.31
2023-02-11T00:26:23.869Z,100592.13
2023-02-11T00:28:53.095Z,100592.97
2023-02-11T00:31:21.883Z,100586.94
2023-02-11T00:33:49.509Z,100594.94
2023-02-11T00:36:23.057Z,100583.66
2023-02-11T00:38:52.172Z,100579.44
2023-02-11T00:41:20.047Z,100578.09
2023-02-11T00:43:47.423Z,100567.44
2023-02-11T00:46:14.955Z,100569.13
2023-02-11T00:48:42.115Z,100574.31
2023-02-11T00:51:10.466Z,100572.06
2023-02-11T00:53:37.863Z,100567.81
2023-02-11T00:56:05.312Z,100564.56
2023-02-11T00:58:32.940Z,100561.31
2023-02-11T01:03:47.456Z,100550.19
2023-02-11T01:06:15.630Z,100547.22
2023-02-11T01:08:42.600Z,100539.50
2023-02-11T01:11:16.218Z,100533.06
2023-02-11T01:13:43.702Z,100533.06
2023-02-11T01:16:12.094Z,100529.28
2023-02-11T01:18:40.059Z,100523.50
2023-02-11T01:21:08.112Z,100530.75
2023-02-11T01:23:35.397Z,100523.72
2023-02-11T01:26:03.116Z,100523.16
2023-02-11T01:28:31.023Z,100514.75
2023-02-11T01:30:58.290Z,100515.75
2023-02-11T01:33:25.871Z,100521.47
2023-02-11T01:35:53.632Z,100509.25
2023-02-11T01:38:26.617Z,100513.88
2023-02-11T01:40:56.825Z,100511.19
2023-02-11T01:43:25.200Z,100507.81
2023-02-11T01:45:53.006Z,100510.75
2023-02-11T01:48:33.312Z,100515.94
2023-02-11T01:51:17.323Z,100513.41
2023-02-11T01:54:06.706Z,100521.66
2023-02-11T01:56:56.415Z,100523.84
2023-02-11T01:59:33.125Z,100518.66
2023-02-11T02:02:06.076Z,100519.75
2023-02-11T02:04:39.245Z,100515.41
2023-02-11T02:07:12.381Z,100516.38
2023-02-11T02:09:44.422Z,100511.44
2023-02-11T02:12:11.989Z,100510.12
2023-02-11T02:14:40.597Z,100508.31
2023-02-11T02:17:14.846Z,100508.44
2023-02-11T02:19:57.242Z,100509.41
2023-02-11T02:23:07.705Z,100508.69
2023-02-11T02:26:13.250Z,100506.25
2023-02-11T02:28:46.372Z,100499.50
2023-02-11T02:31:19.710Z,100494.78
2023-02-11T02:33:52.625Z,100486.78
2023-02-11T02:36:49.540Z,100485.34
2023-02-11T02:39:26.858Z,100486.59
2023-02-11T02:41:56.527Z,100486.00
2023-02-11T02:44:24.117Z,100487.09
2023-02-11T02:46:51.288Z,100478.28
2023-02-11T02:49:18.636Z,100476.47
2023-02-11T02:52:03.923Z,100472.69
2023-02-11T02:54:34.388Z,100465.69
2023-02-11T02:57:38.844Z,100462.62
2023-02-11T03:00:21.950Z,100458.53
2023-02-11T03:03:24.055Z,100460.37
2023-02-11T03:06:04.655Z,100464.97
2023-02-11T03:08:46.088Z,100448.06
2023-02-11T03:11:17.542Z,100453.38
2023-02-11T03:13:46.183Z,100446.09
2023-02-11T03:16:23.490Z,100451.81
2023-02-11T03:18:57.302Z,100459.22
2023-02-11T03:21:25.207Z,100457.78
2023-02-11T03:23:59.411Z,100451.63
2023-02-11T03:26:31.749Z,100442.06
2023-02-11T03:29:10.413Z,100442.31
2023-02-11T03:31:48.178Z,100437.75
2023-02-11T03:34:30.666Z,100438.31
2023-02-11T03:37:05.737Z,100437.34
2023-02-11T03:39:41.056Z,100434.81
2023-02-11T03:42:11.413Z,100436.91
2023-02-11T03:44:43.991Z,100431.72
2023-02-11T03:47:14.049Z,100422.03
2023-02-11T03:49:43.365Z,100413.34
2023-02-11T03:52:49.652Z,100406.59
2023-02-11T03:55:41.084Z,100405.16
2023-02-11T03:58:09.202Z,100399.25
2023-02-11T04:00:41.376Z,100400.31
2023-02-11T04:03:10.455Z,100396.94
2023-02-11T04:05:38.116Z,100397.31
2023-02-11T04:08:05.878Z,100395.41
2023-02-11T04:10:33.828Z,100395.28
2023-02-11T04:13:00.774Z,100389.97
2023-02-11T04:15:28.122Z,100390.09
2023-02-11T04:17:55.782Z,100387.81
2023-02-11T04:20:22.703Z,100388.66
2023-02-11T04:22:50.262Z,100389.63
2023-02-11T04:25:17.681Z,100392.66
2023-02-11T04:27:45.184Z,100389.97
2023-02-11T04:30:13.057Z,100387.19
2023-02-11T04:32:40.074Z,100381.03
2023-02-11T04:35:07.902Z,100382.00
2023-02-11T04:37:35.772Z,100375.00
2023-02-11T04:40:02.680Z,100372.84
2023-02-11T04:42:30.261Z,100372.59
2023-02-11T04:44:57.184Z,100372.72
2023-02-11T04:47:24.476Z,100374.41
2023-02-11T04:49:51.763Z,100377.19
2023-02-11T04:52:19.008Z,100364.03
2023-02-11T04:54:46.295Z,100375.63
2023-02-11T04:57:13.581Z,100363.56
2023-02-11T04:59:40.828Z,100369.59
2023-02-11T05:02:08.359Z,100365.25
2023-02-11T05:04:35.585Z,100358.50
2023-02-11T05:07:03.311Z,100362.37
2023-02-11T05:09:30.230Z,100353.56
2023-02-11T05:11:57.560Z,100347.50
2023-02-11T05:14:24.836Z,100341.47
2023-02-11T05:16:51.848Z,100345.69
2023-02-11T05:19:19.200Z,100341.47
2023-02-11T05:22:01.347Z,100341.59
2023-02-11T05:24:29.222Z,100346.31
2023-02-11T05:26:56.471Z,100351.63
2023-02-11T05:29:24.081Z,100351.75
2023-02-11T05:31:51.149Z,100357.78
2023-02-11T05:34:18.056Z,100356.47
2023-02-11T05:36:45.665Z,100358.66
2023-02-11T05:39:12.995Z,100360.34
2023-02-11T05:41:40.284Z,100357.94
2023-02-11T05:44:07.248Z,100363.25
2023-02-11T05:46:34.562Z,100362.28
2023-02-11T05:49:02.327Z,100367.09
2023-02-11T05:51:29.309Z,100361.78
2023-02-11T05:53:57.059Z,100365.28
2023-02-11T05:56:24.268Z,100367.00
2023-02-11T05:58:51.522Z,100357.69
2023-02-11T06:01:19.144Z,100359.25
2023-02-11T06:03:46.086Z,100360.34
2023-02-11T06:06:13.592Z,100365.66
2023-02-11T06:08:40.599Z,100356.97
2023-02-11T06:11:07.911Z,100359.00
2023-02-11T06:13:36.772Z,100355.63
2023-02-11T06:16:03.969Z,100346.59
2023-02-11T06:18:31.272Z,100338.50
2023-02-11T06:20:58.495Z,100343.94
2023-02-11T06:23:28.533Z,100344.78
2023-02-11T06:26:02.482Z,100347.31
2023-02-11T06:28:31.737Z,100346.72
2023-02-11T06:31:06.646Z,100345.16
2023-02-11T06:33:35.457Z,100352.03
2023-02-11T06:36:02.717Z,100358.16
2023-02-11T06:38:29.921Z,100353.72
2023-02-11T06:40:57.374Z,100349.72
2023-02-11T06:43:24.597Z,100353.72
2023-02-11T06:45:56.139Z,100349.97
2023-02-11T06:48:24.365Z,100343.56
2023-02-11T06:50:51.990Z,100353.59
2023-02-11T06:53:19.182Z,100360.47
2023-02-11T06:55:46.729Z,100359.50
2023-02-11T06:58:14.380Z,100364.56
2023-02-11T07:00:41.339Z,100360.31
2023-02-11T07:03:08.898Z,100359.09
2023-02-11T07:05:38.305Z,100363.22
2023-02-11T07:08:05.595Z,100352.47
2023-02-11T07:10:34.298Z,100351.97
2023-02-11T07:13:03.146Z,100350.62
2023-02-11T07:15:30.782Z,100350.38
2023-02-11T07:17:58.388Z,100343.75
2023-02-11T07:20:26.858Z,100335.50
2023-02-11T07:22:54.113Z,100336.81
2023-02-11T07:25:21.504Z,100345.37
2023-02-11T07:27:51.170Z,100345.25
2023-02-11T07:30:18.785Z,100331.44
2023-02-11T07:32:45.773Z,100338.22
2023-02-11T07:35:13.097Z,100333.38
2023-02-11T07:37:43.177Z,100334.66
2023-02-11T07:40:10.959Z,100325.59
2023-02-11T07:42:39.636Z,100327.03
2023-02-11T07:45:06.995Z,100323.88
2023-02-11T07:47:35.962Z,100318.28
2023-02-11T07:50:03.638Z,100317.91
2023-02-11T07:52:31.786Z,100315.81
2023-02-11T07:54:58.748Z,100324.25
2023-02-11T07:57:28.348Z,100321.31
2023-02-11T07:59:55.478Z,100321.81
2023-02-11T08:02:23.242Z,100313.44
2023-02-11T08:04:50.871Z,100313.03
2023-02-11T08:07:18.976Z,100319.63
2023-02-11T08:09:46.624Z,100321.91
2023-02-11T08:12:14.777Z,100322.37
2023-02-11T08:14:41.793Z,100330.81
2023-02-11T08:17:09.479Z,100328.72
2023-02-11T08:19:37.199Z,100326.22
2023-02-11T08:22:04.398Z,100326.66
2023-02-11T08:24:32.104Z,100329.66
2023-02-11T08:26:59.086Z,100324.63
2023-02-11T08:29:28.486Z,100319.75
2023-02-11T08:31:55.875Z,100326.50
2023-02-11T08:34:23.048Z,100314.63
2023-02-11T08:36:50.418Z,100307.75
2023-02-11T08:39:20.971Z,100302.00
2023-02-11T08:41:50.697Z,100304.13
2023-02-11T08:44:20.020Z,100291.25
2023-02-11T08:46:47.498Z,100289.03
2023-02-11T08:49:15.481Z,100292.97
2023-02-11T08:51:44.091Z,100297.87
2023-02-11T08:54:12.095Z,100288.47
2023-02-11T08:56:39.892Z,100284.28
2023-02-11T08:59:22.120Z,100277.56
2023-02-11T09:01:53.002Z,100275.31
2023-02-11T09:04:29.079Z,100280.06
2023-02-11T09:07:05.279Z,100283.06
2023-02-11T09:09:53.800Z,100290.63
2023-02-11T09:12:29.491Z,100302.41
2023-02-11T09:15:11.227Z,100310.72
2023-02-11T09:17:50.861Z,100314.63
2023-02-11T09:20:50.736Z,100317.44
2023-02-11T09:23:36.465Z,100315.88
2023-02-11T09:26:21.496Z,100312.38
2023-02-11T09:29:06.925Z,100310.81
2023-02-11T09:31:37.252Z,100298.31
2023-02-11T09:34:42.968Z,100293.22
2023-02-11T09:37:22.703Z,100290.50
2023-02-11T09:40:09.237Z,100285.16
2023-02-11T09:42:45.837Z,100282.44
2023-02-11T09:45:21.165Z,100265.66
2023-02-11T09:47:57.680Z,100258.75
2023-02-11T09:50:44.884Z,100255.50
2023-02-11T09:53:22.422Z,100263.75
2023-02-11T09:55:56.263Z,100258.63
2023-02-11T09:58:27.949Z,100255.38
2023-02-11T10:01:10.892Z,100256.63
2023-02-11T10:03:48.641Z,100264.03
2023-02-11T10:06:41.589Z,100261.88
2023-02-11T10:09:20.799Z,100272.84
2023-02-11T10:12:17.764Z,100258.19
2023-02-11T10:14:54.464Z,100251.69
2023-02-11T10:17:59.632Z,100256.56
2023-02-11T10:21:07.118Z,100243.41
2023-02-11T10:23:38.237Z,100243.69
2023-02-11T10:26:15.485Z,100244.56
2023-02-11T10:28:49.525Z,100250.00
2023-02-11T10:31:34.766Z,100240.37
2023-02-11T10:34:07.682Z,100232.41
2023-02-11T10:36:38.312Z,100232.16
2023-02-11T10:39:21.299Z,100225.53
2023-02-11T10:41:59.083Z,100217.25
2023-02-11T10:45:01.660Z,100216.47
2023-02-11T10:47:34.675Z,100216.66
2023-02-11T10:50:17.119Z,100202.63
2023-02-11T10:52:44.125Z,100199.19
2023-02-11T10:55:18.175Z,100200.38
2023-02-11T10:58:01.364Z,100195.19
2023-02-11T11:00:37.095Z,100199.78
2023-02-11T11:03:17.413Z,100195.75
2023-02-11T11:05:49.600Z,100191.75
2023-02-11T11:08:18.811Z,100198.47
2023-02-11T11:10:50.323Z,100189.94
2023-02-11T11:13:26.576Z,100194.62
2023-02-11T11:16:12.949Z,100186.78
2023-02-11T11:18:52.252Z,100185.28
2023-02-11T11:21:22.464Z,100183.63
2023-02-11T11:23:57.303Z,100182.16
2023-02-11T11:26:28.473Z,100181.31
2023-02-11T11:29:07.978Z,100180.66
2023-02-11T11:31:49.885Z,100167.41
2023-02-11T11:34:29.303Z,100173.81
2023-02-11T11:36:58.747Z,100157.03
2023-02-11T11:39:31.320Z,100157.19
2023-02-11T11:42:00.911Z,100148.44
2023-02-11T11:44:36.581Z,100138.72
2023-02-11T11:47:18.680Z,100153.31
2023-02-11T11:49:52.663Z,100154.47
2023-02-11T11:52:41.435Z,100139.53
2023-02-11T11:55:20.661Z,100139.88
2023-02-11T11:57:49.908Z,100131.31
2023-02-11T12:00:39.273Z,100125.25
2023-02-11T12:03:41.606Z,100129.25
2023-02-11T12:06:32.648Z,100123.22
2023-02-11T12:09:28.045Z,100120.84
2023-02-11T12:12:32.829Z,100111.41
2023-02-11T12:15:31.763Z,100116.75
2023-02-11T12:18:17.556Z,100112.38
2023-02-11T12:21:08.442Z,100106.13
2023-02-11T12:23:41.542Z,100089.28
2023-02-11T12:26:25.137Z,100081.22
2023-02-11T12:29:07.537Z,100079.66
2023-02-11T12:32:04.400Z,100076.91
2023-02-11T12:34:41.371Z,100066.63
2023-02-11T12:37:27.443Z,100062.06
2023-02-11T12:40:07.402Z,100057.44
2023-02-11T12:43:14.885Z,100059.41
2023-02-11T12:46:02.094Z,100053.16
2023-02-11T12:48:57.726Z,100049.72
2023-02-11T12:52:01.595Z,100046.31
2023-02-11T12:54:32.142Z,100041.22
2023-02-11T12:57:12.569Z,100044.56
2023-02-11T12:59:59.121Z,100045.06
2023-02-11T13:02:35.452Z,100036.81
2023-02-11T13:05:16.338Z,100043.50
2023-02-11T13:07:46.880Z,100033.37
2023-02-11T13:10:15.675Z,100034.84
2023-02-11T13:13:09.864Z,100039.69
2023-02-11T13:15:39.028Z,100039.12
2023-02-11T13:18:45.995Z,100018.75
2023-02-11T13:21:16.853Z,100027.09
2023-02-11T13:24:03.315Z,100025.50
2023-02-11T13:26:40.023Z,100026.63
2023-02-11T13:29:19.598Z,100028.62
2023-02-11T13:32:06.261Z,100037.00
2023-02-11T13:34:43.252Z,100035.59
2023-02-11T13:37:22.584Z,100031.50
2023-02-11T13:40:26.832Z,100018.50
2023-02-11T13:42:58.442Z,100014.19
2023-02-11T13:45:48.405Z,99995.84
2023-02-11T13:48:24.737Z,99986.34
2023-02-11T13:50:59.824Z,99987.81
2023-02-11T13:53:29.509Z,99983.06
2023-02-11T13:56:10.287Z,99990.78
2023-02-11T13:58:47.878Z,100005.53
2023-02-11T14:01:41.413Z,100011.56
2023-02-11T14:04:49.030Z,100015.78
2023-02-11T14:07:51.645Z,100026.19
2023-02-11T14:10:44.326Z,100025.16
2023-02-11T14:13:35.101Z,100029.53
2023-02-11T14:16:35.293Z,100034.91
2023-02-11T14:19:06.904Z,100036.59
2023-02-11T14:21:41.402Z,100042.81
2023-02-11T14:24:13.458Z,100047.37
2023-02-11T14:26:50.002Z,100049.88
2023-02-11T14:29:18.801Z,100059.62
2023-02-11T14:32:04.677Z,100051.56
2023-02-11T14:34:48.825Z,100045.13
2023-02-11T14:37:29.323Z,100047.63
2023-02-11T14:40:24.002Z,100035.00
2023-02-11T14:42:54.339Z,100042.88
2023-02-11T14:45:29.629Z,100049.94
2023-02-11T14:48:08.631Z,100055.16
2023-02-11T14:50:44.417Z,100051.44
2023-02-11T14:53:17.052Z,100046.69
2023-02-11T14:55:48.873Z,100040.47
2023-02-11T14:58:31.972Z,100025.94
2023-02-11T15:01:21.850Z,100013.94
2023-02-11T15:03:50.946Z,100002.13
2023-02-11T15:06:25.796Z,99994.72
2023-02-11T15:09:18.968Z,100008.00
2023-02-11T15:11:51.382Z,100004.09
2023-02-11T15:14:29.226Z,100012.81
2023-02-11T15:17:01.663Z,100027.16
2023-02-11T15:19:36.838Z,100030.69
2023-02-11T15:22:21.763Z,100025.09
2023-02-11T15:25:11.150Z,100022.38
2023-02-11T15:27:48.421Z,100013.47
2023-02-11T15:30:22.024Z,99998.12
2023-02-11T15:33:06.162Z,99996.44
2023-02-11T15:35:39.449Z,100003.50
2023-02-11T15:38:08.571Z,100006.22
2023-02-11T15:40:38.584Z,99990.88
2023-02-11T15:43:10.228Z,99980.72
2023-02-11T15:46:04.887Z,99974.28
2023-02-11T15:48:42.642Z,99972.44
2023-02-11T15:51:32.146Z,99967.22
2023-02-11T15:54:03.597Z,99942.94
2023-02-11T15:56:45.129Z,99943.97
2023-02-11T15:59:22.023Z,99957.47
2023-02-11T16:01:51.400Z,99962.22
2023-02-11T16:04:22.822Z,99974.69
2023-02-11T16:06:52.333Z,99966.78
2023-02-11T16:09:24.164Z,99969.69
2023-02-11T16:11:52.641Z,99968.00
2023-02-11T16:14:24.113Z,99969.69
2023-02-11T16:16:57.199Z,99983.34
2023-02-11T16:19:28.208Z,99996.00
2023-02-11T16:21:59.243Z,99997.03
2023-02-11T16:24:33.360Z,99998.88
2023-02-11T16:27:24.287Z,100002.63
2023-02-11T16:29:54.822Z,99996.38
2023-02-11T16:32:30.760Z,99996.56
2023-02-11T16:35:01.855Z,99994.03
2023-02-11T16:37:30.509Z,100007.53
2023-02-11T16:39:59.430Z,100013.94
2023-02-11T16:42:29.586Z,100014.97
2023-02-11T16:44:58.215Z,100002.50
2023-02-11T16:47:31.713Z,100006.87
2023-02-11T16:50:01.783Z,100004.38
2023-02-11T16:52:32.300Z,100002.50
2023-02-11T16:55:00.495Z,99987.56
2023-02-11T16:57:30.402Z,99990.25
2023-02-11T16:59:59.995Z,99992.13
2023-02-11T17:02:36.610Z,100001.03
2023-02-11T17:05:07.987Z,100020.75
2023-02-11T17:07:36.399Z,100017.41
2023-02-11T17:10:07.568Z,100019.06
2023-02-11T17:12:35.944Z,100016.56
2023-02-11T17:15:07.472Z,100019.47
2023-02-11T17:17:36.567Z,100027.56
2023-02-11T17:20:06.628Z,100031.91
2023-02-11T17:22:35.779Z,100031.28
2023-02-11T17:25:08.873Z,100038.53
2023-02-11T17:27:38.136Z,100040.37
2023-02-11T17:30:07.481Z,100044.09
2023-02-11T17:32:38.694Z,100038.91
2023-02-11T17:35:08.299Z,100035.38
2023-02-11T17:37:37.156Z,100032.88
2023-02-11T17:40:08.849Z,100043.84
2023-02-11T17:42:37.168Z,100037.81
2023-02-11T17:45:05.959Z,100035.31
2023-02-11T17:47:35.453Z,100033.44
2023-02-11T17:50:05.176Z,100027.41
2023-02-11T17:52:33.919Z,100027.56
2023-02-11T17:55:02.732Z,100025.69
2023-02-11T17:57:33.737Z,100035.50
2023-02-11T18:00:02.925Z,100035.66
2023-02-11T18:02:30.585Z,100033.97
2023-02-11T18:05:00.608Z,100042.25
2023-02-11T18:07:30.839Z,100033.53
2023-02-11T18:09:59.469Z,100034.34
2023-02-11T18:12:28.312Z,100037.44
2023-02-11T18:14:58.395Z,100043.00
2023-02-11T18:17:28.572Z,100045.91
2023-02-11T18:19:58.939Z,100041.53
2023-02-11T18:22:27.849Z,100040.87
2023-02-11T18:24:57.742Z,100038.38
2023-02-11T18:27:26.350Z,100037.53
2023-02-11T18:29:55.559Z,100049.34
2023-02-11T18:32:24.157Z,100051.22
2023-02-11T18:34:54.184Z,100051.22
2023-02-11T18:37:26.114Z,100047.88
2023-02-11T18:39:54.685Z,100050.56
2023-02-11T18:42:23.194Z,100050.75
2023-02-11T18:44:52.167Z,100046.38
2023-02-11T18:47:20.835Z,100048.25
2023-02-11T18:49:53.441Z,100047.41
2023-02-11T18:52:24.196Z,100038.44
2023-02-11T18:54:54.860Z,100039.47
2023-02-11T18:57:23.678Z,100044.88
2023-02-11T18:59:53.393Z,100050.44
2023-02-11T19:02:24.795Z,100040.50
2023-02-11T19:04:55.178Z,100035.94
2023-02-11T19:07:31.750Z,100041.53
2023-02-11T19:10:00.305Z,100036.13
2023-02-11T19:12:29.181Z,100042.75
2023-02-11T19:15:00.026Z,100039.22
2023-02-11T19:17:28.467Z,100055.56
2023-02-11T19:19:57.581Z,100060.94
2023-02-11T19:22:27.020Z,100058.44
2023-02-11T19:24:55.639Z,100059.28
2023-02-11T19:27:24.514Z,100057.59
2023-02-11T19:29:53.412Z,100062.16
2023-02-11T19:32:22.835Z,100052.22
2023-02-11T19:34:55.072Z,100056.78
2023-02-11T19:37:25.880Z,100060.69
2023-02-11T19:39:54.929Z,100059.66
2023-02-11T19:42:25.844Z,100059.66
2023-02-11T19:44:56.782Z,100061.50
2023-02-11T19:47:28.559Z,100060.50
2023-02-11T19:49:56.871Z,100072.28
2023-02-11T19:52:25.846Z,100072.09
2023-02-11T19:54:56.290Z,100070.63
2023-02-11T19:57:25.584Z,100080.38
2023-02-11T19:59:55.548Z,100083.06
2023-02-11T20:02:25.721Z,100072.28
2023-02-11T20:04:54.444Z,100073.31
2023-02-11T20:07:23.312Z,100082.41
2023-02-11T20:09:54.578Z,100088.81
2023-02-11T20:12:25.921Z,100073.50
2023-02-11T20:14:54.229Z,100075.34
2023-02-11T20:17:22.676Z,100082.59
2023-02-11T20:19:52.138Z,100082.97
2023-02-11T20:22:21.126Z,100081.94
2023-02-11T20:24:49.424Z,100081.13
2023-02-11T20:27:20.064Z,100090.88
2023-02-11T20:29:48.872Z,100094.59
2023-02-11T20:32:18.153Z,100085.66
2023-02-11T20:34:48.693Z,100084.66
2023-02-11T20:37:21.005Z,100091.06
2023-02-11T20:39:49.426Z,100086.69
2023-02-11T20:42:18.472Z,100093.09
2023-02-11T20:44:47.552Z,100081.31
2023-02-11T20:47:15.604Z,100085.00
2023-02-11T20:49:43.293Z,100076.28
2023-02-11T20:52:12.866Z,100069.69
2023-02-11T20:54:41.583Z,100084.19
2023-02-11T20:57:46.749Z,100078.78
2023-02-11T21:00:18.951Z,100074.44
2023-02-11T21:02:52.747Z,100084.37
2023-02-11T21:05:23.852Z,100094.31
2023-02-11T21:07:54.294Z,100097.00
2023-02-11T21:10:24.817Z,100098.81
2023-02-11T21:12:52.775Z,100089.91
2023-02-11T21:15:25.058Z,100099.84
2023-02-11T21:17:55.080Z,100093.78
2023-02-11T21:20:24.155Z,100093.78
2023-02-11T21:22:52.604Z,100089.22
2023-02-11T21:25:23.485Z,100090.25
2023-02-11T21:27:52.796Z,100094.63
2023-02-11T21:30:21.396Z,100088.75
2023-02-11T21:32:49.640Z,100101.37
2023-02-11T21:35:18.694Z,100085.41
2023-02-11T21:38:31.067Z,100084.75
2023-02-11T21:41:04.669Z,100082.06
2023-02-11T21:43:34.107Z,100077.87
2023-02-11T21:46:08.309Z,100083.94
2023-02-11T21:48:36.897Z,100078.72
2023-02-11T21:51:09.511Z,100081.41
2023-02-11T21:53:37.379Z,100075.84
2023-02-11T21:56:09.197Z,100082.25
2023-02-11T21:58:37.439Z,100077.53
2023-02-11T22:01:17.442Z,100081.06
2023-02-11T22:03:46.467Z,100094.50
2023-02-11T22:06:18.157Z,100096.19
2023-02-11T22:08:45.732Z,100078.53
2023-02-11T22:11:14.350Z,100086.62
2023-02-11T22:13:42.726Z,100085.78
2023-02-11T22:16:13.730Z,100089.31
2023-02-11T22:18:41.701Z,100087.63
2023-02-11T22:21:15.523Z,100093.03
2023-02-11T22:23:43.090Z,100094.69
2023-02-11T22:26:18.098Z,100106.13
2023-02-11T22:28:46.224Z,100105.09
2023-02-11T22:31:16.475Z,100102.22
2023-02-11T22:33:43.891Z,100111.31
2023-02-11T22:36:17.175Z,100106.78
2023-02-11T22:38:44.841Z,100106.78
2023-02-11T22:41:12.863Z,100104.91
2023-02-11T22:43:41.833Z,100101.19
2023-02-11T22:46:11.255Z,100110.12
2023-02-11T22:48:38.304Z,100100.19
2023-02-11T22:51:15.194Z,100111.47
2023-02-11T22:53:44.005Z,100116.69
2023-02-11T22:56:15.630Z,100117.34
2023-02-11T22:58:43.136Z,100122.53
2023-02-11T23:01:10.345Z,100120.50
2023-02-11T23:03:37.884Z,100123.84
2023-02-11T23:06:08.142Z,100131.09
2023-02-11T23:08:35.887Z,100121.63
2023-02-11T23:11:13.131Z,100115.03
2023-02-11T23:13:41.880Z,100119.38
2023-02-11T23:16:12.303Z,100125.44
2023-02-11T23:18:43.282Z,100124.22
2023-02-11T23:21:13.578Z,100118.66
2023-02-11T23:23:40.893Z,100122.16
2023-02-11T23:26:17.203Z,100115.59
2023-02-11T23:28:46.422Z,100111.69
2023-02-11T23:31:23.833Z,100105.94
2023-02-11T23:33:51.971Z,100110.12
2023-02-11T23:36:20.671Z,100110.75
2023-02-11T23:38:48.855Z,100110.38
2023-02-11T23:41:16.959Z,100108.34
2023-02-11T23:43:52.354Z,100109.84
2023-02-11T23:46:22.100Z,100102.41
2023-02-11T23:48:50.944Z,100101.84
2023-02-11T23:51:18.652Z,100097.31
2023-02-11T23:53:49.543Z,100096.75
2023-02-11T23:56:19.658Z,100104.44
2023-02-11T23:58:51.990Z,100102.41
